Time;durP1;ratioP1;P1;durP2;ratioP2;P2;SDS_P1;SDS_P2;PMS_P1;PMS_P2;Temp;Humidity;BMP_temperature;BMP_pressure;BME280_temperature;BME280_humidity;BME280_pressure;Samples;Min_cycle;Max_cycle;Signal;HPM_P1;HPM_P2
2023/09/10 00:01:05;;;;;;;31.35;26.65;;;;;;;19.76;100.00;101598.13;5002553;28;20030;-81
2023/09/10 00:03:34;;;;;;;29.40;26.42;;;;;;;19.76;100.00;101600.81;5012260;28;20067;-81
2023/09/10 00:06:01;;;;;;;27.70;25.17;;;;;;;19.74;100.00;101600.13;4994194;28;20026;-78
2023/09/10 00:08:27;;;;;;;29.77;26.67;;;;;;;19.69;100.00;101597.09;5010994;28;20493;-77
2023/09/10 00:10:54;;;;;;;34.28;27.33;;;;;;;19.69;100.00;101603.25;5009750;28;20026;-77
2023/09/10 00:13:19;;;;;;;30.83;27.58;;;;;;;19.64;100.00;101597.56;4992905;28;20394;-81
2023/09/10 00:15:45;;;;;;;29.20;26.38;;;;;;;19.64;100.00;101594.88;5008778;28;20029;-81
2023/09/10 00:18:15;;;;;;;31.13;28.02;;;;;;;19.60;100.00;101603.31;4992589;28;20030;-80
2023/09/10 00:20:40;;;;;;;31.65;28.33;;;;;;;19.61;100.00;101602.31;5007281;28;20489;-77
2023/09/10 00:23:09;;;;;;;30.40;27.25;;;;;;;19.59;100.00;101594.47;5010013;28;20057;-81
2023/09/10 00:25:35;;;;;;;32.38;29.02;;;;;;;19.57;100.00;101598.28;5010164;28;20560;-81
2023/09/10 00:28:00;;;;;;;31.77;28.60;;;;;;;19.55;100.00;101592.28;5010076;28;20053;-77
2023/09/10 00:30:27;;;;;;;33.05;28.17;;;;;;;19.49;100.00;101595.53;4986033;28;20064;-77
2023/09/10 00:32:53;;;;;;;30.95;28.02;;;;;;;19.49;100.00;101596.38;5009661;28;20034;-77
2023/09/10 00:35:19;;;;;;;31.65;28.30;;;;;;;19.45;100.00;101589.66;5009587;28;20025;-77
2023/09/10 00:37:47;;;;;;;30.50;27.35;;;;;;;19.46;100.00;101588.66;4993044;28;20033;-77
2023/09/10 00:40:13;;;;;;;30.77;27.55;;;;;;;19.41;100.00;101583.78;5009535;28;20394;-81
2023/09/10 00:42:38;;;;;;;30.83;27.38;;;;;;;19.39;100.00;101591.09;5008887;28;20155;-77
2023/09/10 00:45:05;;;;;;;32.15;28.77;;;;;;;19.42;100.00;101584.63;5010017;28;20018;-77
2023/09/10 00:47:31;;;;;;;31.13;28.02;;;;;;;19.41;100.00;101585.63;5009755;28;20026;-78
2023/09/10 00:49:57;;;;;;;34.95;29.10;;;;;;;19.44;100.00;101589.81;5009579;28;20048;-77
2023/09/10 00:52:25;;;;;;;32.80;28.15;;;;;;;19.46;100.00;101593.16;5010279;28;20482;-77
2023/09/10 00:54:50;;;;;;;33.63;28.25;;;;;;;19.43;100.00;101588.97;5010242;28;20044;-77
2023/09/10 00:57:16;;;;;;;34.50;28.85;;;;;;;19.43;100.00;101591.63;5009165;28;20033;-77
2023/09/10 00:59:42;;;;;;;33.50;29.90;;;;;;;19.44;100.00;101593.31;5010721;28;20033;-80
2023/09/10 01:02:09;;;;;;;32.00;28.65;;;;;;;19.41;100.00;101588.28;5005871;28;20061;-80
2023/09/10 01:04:34;;;;;;;33.80;30.23;;;;;;;19.42;100.00;101589.97;5008822;28;20367;-81
2023/09/10 01:07:01;;;;;;;34.88;30.73;;;;;;;19.38;100.00;101588.59;5008634;28;20536;-78
2023/09/10 01:09:26;;;;;;;35.05;31.20;;;;;;;19.37;100.00;101582.41;5009369;28;20121;-79
2023/09/10 01:12:13;;;;;;;34.35;30.77;;;;;;;19.35;100.00;101589.75;5008876;28;20104;-78
2023/09/10 01:15:19;;;;;;;35.83;32.17;;;;;;;19.41;100.00;101588.28;5009192;28;20092;-80
2023/09/10 01:18:09;;;;;;;37.35;32.85;;;;;;;19.40;100.00;101592.78;5008770;28;20159;-77
2023/09/10 01:21:05;;;;;;;35.92;32.22;;;;;;;19.38;100.00;101585.94;4981721;28;20091;-80
2023/09/10 01:23:53;;;;;;;34.42;30.75;;;;;;;19.37;100.00;101590.44;5007266;28;20092;-77
2023/09/10 01:26:18;;;;;;;34.40;30.70;;;;;;;19.33;100.00;101590.88;5006169;28;20100;-80
2023/09/10 01:28:43;;;;;;;35.63;31.90;;;;;;;19.31;100.00;101588.38;5010098;28;20076;-80
2023/09/10 01:31:12;;;;;;;33.15;30.05;;;;;;;19.30;100.00;101594.69;5009519;28;20057;-77
2023/09/10 01:33:44;;;;;;;37.35;33.25;;;;;;;19.26;100.00;101585.31;5008691;28;20625;-81
2023/09/10 01:36:21;;;;;;;33.70;30.20;;;;;;;19.21;100.00;101590.28;4991035;28;20025;-77
2023/09/10 01:38:49;;;;;;;34.25;30.73;;;;;;;19.24;100.00;101591.81;5004490;28;20103;-81
2023/09/10 01:41:19;;;;;;;36.08;32.30;;;;;;;19.23;100.00;101587.47;5006685;28;20120;-77
2023/09/10 01:43:46;;;;;;;36.47;32.97;;;;;;;19.21;100.00;101592.06;5000962;28;20544;-77
2023/09/10 01:46:13;;;;;;;38.22;34.40;;;;;;;19.15;100.00;101593.53;5009104;28;20474;-77
2023/09/10 01:48:39;;;;;;;37.50;33.75;;;;;;;19.12;100.00;101593.81;5009773;28;20034;-77
2023/09/10 01:51:05;;;;;;;41.85;37.65;;;;;;;19.18;100.00;101598.56;5009759;28;20036;-77
2023/09/10 01:53:31;;;;;;;43.78;39.13;;;;;;;19.19;100.00;101597.56;5007278;28;20445;-81
2023/09/10 01:55:56;;;;;;;44.25;39.33;;;;;;;19.16;100.00;101597.88;5009115;28;20034;-78
2023/09/10 01:58:22;;;;;;;42.72;38.38;;;;;;;19.18;100.00;101593.22;5009126;28;20029;-77
2023/09/10 02:00:48;;;;;;;43.95;39.13;;;;;;;19.18;100.00;101598.56;5008870;28;20033;-81
2023/09/10 02:03:13;;;;;;;45.35;40.28;;;;;;;19.20;100.00;101596.56;5011456;28;20030;-77
2023/09/10 02:05:44;;;;;;;44.55;40.17;;;;;;;19.19;100.00;101605.56;5009548;28;20470;-77
2023/09/10 02:08:09;;;;;;;44.17;39.58;;;;;;;19.20;100.00;101601.91;5008998;28;20113;-81
2023/09/10 02:10:36;;;;;;;46.42;41.60;;;;;;;19.21;100.00;101608.94;4989974;28;20664;-81
2023/09/10 02:13:05;;;;;;;45.33;40.72;;;;;;;19.20;100.00;101607.25;5008728;28;20394;-81
2023/09/10 02:15:30;;;;;;;45.75;40.60;;;;;;;19.19;100.00;101607.41;5000996;28;20056;-77
2023/09/10 02:17:56;;;;;;;44.88;40.17;;;;;;;19.18;100.00;101605.72;5008633;28;20036;-81
2023/09/10 02:20:21;;;;;;;46.13;41.58;;;;;;;19.18;100.00;101609.22;5008639;28;20556;-81
2023/09/10 02:22:47;;;;;;;46.70;41.75;;;;;;;19.19;100.00;101610.91;5007720;28;20105;-77
2023/09/10 02:25:12;;;;;;;47.45;42.75;;;;;;;19.19;100.00;101605.56;5008902;28;20026;-77
2023/09/10 02:27:45;;;;;;;46.63;41.95;;;;;;;19.17;100.00;101602.22;5006423;28;20057;-77
2023/09/10 02:30:10;;;;;;;;;;;;;;;19.26;100.00;101603.16;5008757;28;20047;-77
2023/09/10 02:32:37;;;;;;;49.20;44.22;;;;;;;19.20;100.00;101603.75;5009111;28;20008;-81
2023/09/10 02:35:03;;;;;;;52.15;46.85;;;;;;;19.18;100.00;101603.06;5007672;28;20436;-77
2023/09/10 02:37:28;;;;;;;50.83;45.70;;;;;;;19.19;100.00;101604.72;5008870;28;20021;-77
2023/09/10 02:39:54;;;;;;;52.92;47.58;;;;;;;19.19;100.00;101604.72;5009295;28;20029;-81
2023/09/10 02:42:19;;;;;;;52.45;47.03;;;;;;;19.17;100.00;101602.22;5004346;28;21787;-77
2023/09/10 02:44:45;;;;;;;54.67;49.05;;;;;;;19.17;100.00;101604.88;5004257;28;20088;-77
2023/09/10 02:47:11;;;;;;;54.42;48.85;;;;;;;19.18;100.00;101603.06;5007855;28;20030;-80
2023/09/10 02:49:36;;;;;;;52.55;47.20;;;;;;;19.19;100.00;101602.06;5007358;28;20060;-77
2023/09/10 02:52:02;;;;;;;53.53;47.90;;;;;;;19.17;100.00;101602.22;5009155;28;20540;-81
2023/09/10 02:54:28;;;;;;;53.08;47.58;;;;;;;19.16;100.00;101597.03;5010706;28;20037;-77
2023/09/10 02:56:54;;;;;;;54.50;48.85;;;;;;;19.15;100.00;101601.53;5009593;28;20029;-78
2023/09/10 02:59:21;;;;;;;57.28;51.45;;;;;;;19.15;100.00;101606.88;5010116;28;20104;-77
2023/09/10 03:01:47;;;;;;;54.38;48.58;;;;;;;19.15;100.00;101604.19;5009535;28;20529;-77
2023/09/10 03:04:13;;;;;;;54.70;49.08;;;;;;;19.12;100.00;101609.00;4992950;28;20467;-80
2023/09/10 03:06:44;;;;;;;53.60;47.80;;;;;;;19.09;100.00;101600.31;5000709;28;20132;-81
2023/09/10 03:09:13;;;;;;;58.00;51.17;;;;;;;19.11;100.00;101613.50;5006881;28;20482;-77
2023/09/10 03:11:39;;;;;;;56.08;49.65;;;;;;;19.11;100.00;101608.16;5010069;28;20100;-77
2023/09/10 03:14:06;;;;;;;57.97;52.15;;;;;;;19.09;100.00;101607.47;4993453;28;20171;-81
2023/09/10 03:16:33;;;;;;;58.67;52.58;;;;;;;19.12;100.00;101604.50;5012124;28;20478;-77
2023/09/10 03:18:59;;;;;;;57.70;51.83;;;;;;;19.14;100.00;101602.50;5009664;28;20033;-77
2023/09/10 03:21:26;;;;;;;58.55;52.65;;;;;;;19.13;100.00;101605.34;5010722;28;20401;-81
2023/09/10 03:23:52;;;;;;;57.05;51.17;;;;;;;19.13;100.00;101600.84;5005652;28;20030;-77
2023/09/10 03:26:17;;;;;;;57.83;51.67;;;;;;;19.12;100.00;101596.50;5006296;28;20025;-81
2023/09/10 03:28:42;;;;;;;58.35;51.90;;;;;;;19.12;100.00;101599.16;5010025;28;20936;-77
2023/09/10 03:31:08;;;;;;;54.13;48.60;;;;;;;19.10;100.00;101595.81;5009816;28;20118;-81
2023/09/10 03:33:35;;;;;;;57.53;51.55;;;;;;;19.13;100.00;101595.50;5010485;28;20029;-77
2023/09/10 03:36:01;;;;;;;53.30;48.00;;;;;;;19.13;100.00;101590.16;4992296;28;20030;-81
2023/09/10 03:38:26;;;;;;;53.72;48.53;;;;;;;19.06;100.00;101591.75;4992255;28;20021;-77
2023/09/10 03:40:52;;;;;;;59.25;53.10;;;;;;;19.11;100.00;101592.16;5005802;28;20497;-77
2023/09/10 03:43:18;;;;;;;58.78;52.75;;;;;;;19.12;100.00;101588.50;4933413;28;2025626;-81
2023/09/10 03:45:43;;;;;;;59.85;53.65;;;;;;;19.08;100.00;101592.44;5010323;28;20144;-77
2023/09/10 03:48:09;;;;;;;58.83;52.92;;;;;;;19.11;100.00;101592.16;5007423;28;20026;-77
2023/09/10 03:50:34;;;;;;;58.88;52.97;;;;;;;19.10;100.00;101588.66;5009114;28;20887;-77
2023/09/10 03:53:00;;;;;;;56.13;50.33;;;;;;;19.07;100.00;101590.78;5001192;28;20033;-77
2023/09/10 03:55:25;;;;;;;53.45;48.25;;;;;;;19.07;100.00;101591.63;5012021;28;20033;-81
2023/09/10 03:57:51;;;;;;;54.45;48.85;;;;;;;19.02;100.00;101587.72;5010887;28;20604;-80
2023/09/10 04:00:16;;;;;;;55.47;50.17;;;;;;;19.04;100.00;101588.41;5011151;28;20033;-81
2023/09/10 04:02:42;;;;;;;59.65;53.60;;;;;;;19.01;100.00;101580.72;5010937;28;20081;-81
2023/09/10 04:05:10;;;;;;;55.40;50.10;;;;;;;18.98;100.00;101587.19;5010682;28;20382;-78
2023/09/10 04:07:36;;;;;;;52.95;47.60;;;;;;;18.96;100.00;101573.16;5014640;28;20037;-81
2023/09/10 04:10:02;;;;;;;55.28;49.85;;;;;;;18.92;100.00;101581.63;5011142;28;20053;-77
2023/09/10 04:12:28;;;;;;;56.42;50.53;;;;;;;18.93;100.00;101573.47;5010290;28;20050;-77
2023/09/10 04:14:53;;;;;;;57.67;52.05;;;;;;;18.89;100.00;101573.91;5009545;28;20057;-77
2023/09/10 04:17:19;;;;;;;54.55;49.25;;;;;;;18.91;100.00;101580.78;5010854;28;20033;-77
2023/09/10 04:19:44;;;;;;;57.47;51.70;;;;;;;18.88;100.00;101578.41;5010680;28;20032;-77
2023/09/10 04:22:10;;;;;;;56.60;50.95;;;;;;;18.87;100.00;101567.91;5006958;28;20037;-77
2023/09/10 04:24:37;;;;;;;56.80;51.13;;;;;;;18.88;100.00;101575.75;5012397;28;20076;-77
2023/09/10 04:27:03;;;;;;;59.88;54.00;;;;;;;18.88;100.00;101574.91;5010674;28;20048;-77
2023/09/10 04:29:29;;;;;;;56.50;51.00;;;;;;;18.88;100.00;101570.41;5006213;28;20502;-81
2023/09/10 04:31:56;;;;;;;60.22;53.60;;;;;;;18.88;100.00;101574.91;5006377;28;20064;-77
2023/09/10 04:34:22;;;;;;;55.97;50.47;;;;;;;18.88;100.00;101577.56;4992345;28;20406;-77
2023/09/10 04:36:47;;;;;;;57.90;52.17;;;;;;;18.89;100.00;101571.25;5010939;28;20030;-81
2023/09/10 04:39:17;;;;;;;57.13;51.30;;;;;;;18.88;100.00;101580.25;4993138;28;20030;-81
2023/09/10 04:41:43;;;;;;;56.05;50.40;;;;;;;18.86;100.00;101579.56;5011701;28;20065;-77
2023/09/10 04:44:09;;;;;;;55.97;50.53;;;;;;;18.84;100.00;101581.53;5010200;28;20088;-77
2023/09/10 04:46:35;;;;;;;55.35;49.72;;;;;;;18.83;100.00;101585.19;4993257;28;20030;-79
2023/09/10 04:49:01;;;;;;;58.03;52.13;;;;;;;18.80;100.00;101580.97;5009521;28;20032;-79
2023/09/10 04:51:27;;;;;;;55.83;50.38;;;;;;;18.76;100.00;101576.91;5010715;28;20109;-82
2023/09/10 04:53:53;;;;;;;54.13;48.90;;;;;;;18.79;100.00;101577.47;5008644;28;20034;-77
2023/09/10 04:56:19;;;;;;;55.78;50.45;;;;;;;18.73;100.00;101578.06;5007944;28;20037;-80
2023/09/10 04:58:45;;;;;;;55.42;49.90;;;;;;;18.74;100.00;101578.91;5007100;28;20037;-76
2023/09/10 05:01:11;;;;;;;53.90;48.58;;;;;;;18.73;100.00;101583.38;5011317;28;20506;-77
2023/09/10 05:03:36;;;;;;;54.28;48.58;;;;;;;18.71;100.00;101585.38;5008985;28;20060;-81
2023/09/10 05:06:05;;;;;;;53.95;48.55;;;;;;;18.70;100.00;101593.50;5010043;28;20026;-77
2023/09/10 05:08:31;;;;;;;54.22;48.88;;;;;;;18.67;100.00;101591.16;5010005;28;20033;-81
2023/09/10 05:10:57;;;;;;;54.40;48.92;;;;;;;18.65;100.00;101595.78;5008474;28;20025;-77
2023/09/10 05:13:23;;;;;;;53.42;47.95;;;;;;;18.63;100.00;101592.44;5009505;28;20034;-82
2023/09/10 05:15:48;;;;;;;56.60;51.05;;;;;;;18.59;100.00;101591.00;4985598;28;20052;-79
2023/09/10 05:18:14;;;;;;;56.33;50.88;;;;;;;18.63;100.00;101590.59;5017926;28;20034;-77
2023/09/10 05:20:40;;;;;;;54.63;49.08;;;;;;;18.59;100.00;101591.00;5010345;28;20021;-77
2023/09/10 05:23:05;;;;;;;52.05;46.90;;;;;;;18.60;100.00;101592.69;5002972;28;20033;-77
2023/09/10 05:25:34;;;;;;;53.65;48.30;;;;;;;18.58;100.00;101595.50;5007898;28;20045;-77
2023/09/10 05:28:00;;;;;;;53.30;47.90;;;;;;;18.57;100.00;101593.81;5009599;28;20026;-77
2023/09/10 05:30:25;;;;;;;56.47;50.78;;;;;;;18.64;100.00;101594.09;5008334;28;20040;-77
2023/09/10 05:32:52;;;;;;;54.17;48.78;;;;;;;18.62;100.00;101591.59;5009611;28;20378;-81
2023/09/10 05:35:17;;;;;;;52.35;47.33;;;;;;;18.64;100.00;101600.28;5009336;28;20474;-81
2023/09/10 05:37:43;;;;;;;54.60;49.08;;;;;;;18.63;100.00;101603.94;5008326;28;20030;-77
2023/09/10 05:40:09;;;;;;;55.03;49.38;;;;;;;18.63;100.00;101600.41;5010073;28;20033;-77
2023/09/10 05:42:35;;;;;;;53.42;48.33;;;;;;;18.63;100.00;101603.09;5010151;28;20112;-77
2023/09/10 05:45:00;;;;;;;53.25;48.13;;;;;;;18.65;100.00;101601.97;5008124;28;20109;-81
2023/09/10 05:47:25;;;;;;;56.03;50.40;;;;;;;18.71;100.00;101606.69;5011017;28;20041;-77
2023/09/10 05:49:51;;;;;;;55.13;49.30;;;;;;;18.74;100.00;101601.06;5001856;28;20478;-81
2023/09/10 05:52:17;;;;;;;51.17;46.10;;;;;;;18.77;100.00;101595.44;5009679;28;20022;-80
2023/09/10 05:54:42;;;;;;;51.50;46.45;;;;;;;18.78;100.00;101602.44;5009764;28;20084;-81
2023/09/10 05:57:08;;;;;;;53.50;48.20;;;;;;;18.77;100.00;101603.44;5001101;28;20057;-77
2023/09/10 05:59:35;;;;;;;51.80;46.30;;;;;;;18.84;100.00;101605.53;5009577;28;20626;-77
2023/09/10 06:02:00;;;;;;;50.60;45.53;;;;;;;18.83;100.00;101606.53;5008600;28;20057;-80
2023/09/10 06:04:27;;;;;;;51.28;46.17;;;;;;;18.83;100.00;101610.03;5009203;28;20018;-77
2023/09/10 06:06:53;;;;;;;51.00;45.70;;;;;;;18.89;100.00;101614.75;5008265;28;20041;-77
2023/09/10 06:09:19;;;;;;;49.85;44.60;;;;;;;18.91;100.00;101614.59;4999283;28;20034;-80
2023/09/10 06:11:46;;;;;;;48.58;43.75;;;;;;;18.93;100.00;101632.13;5005052;28;20046;-77
2023/09/10 06:14:12;;;;;;;49.10;43.97;;;;;;;18.96;100.00;101621.16;5005221;28;20107;-77
2023/09/10 06:16:37;;;;;;;50.63;45.35;;;;;;;19.00;100.00;101629.72;5008901;28;20022;-77
2023/09/10 06:19:03;;;;;;;47.95;43.22;;;;;;;19.04;100.00;101628.41;5007749;28;20152;-77
2023/09/10 06:21:29;;;;;;;49.55;44.72;;;;;;;19.06;100.00;101627.28;5007756;28;20025;-77
2023/09/10 06:23:55;;;;;;;49.92;45.08;;;;;;;19.17;100.00;101625.38;5007549;28;20033;-77
2023/09/10 06:26:20;;;;;;;48.90;43.70;;;;;;;19.22;100.00;101629.31;5009050;28;20030;-77
2023/09/10 06:28:46;;;;;;;50.88;45.88;;;;;;;19.34;100.00;101627.25;4990596;28;20026;-77
2023/09/10 06:31:11;;;;;;;49.25;44.30;;;;;;;19.44;100.00;101636.03;5008651;28;20049;-77
2023/09/10 06:33:36;;;;;;;48.47;43.65;;;;;;;19.52;100.00;101633.44;5009377;28;20021;-77
2023/09/10 06:36:02;;;;;;;48.35;43.30;;;;;;;19.56;100.00;101634.81;5008384;28;20498;-82
2023/09/10 06:38:29;;;;;;;47.20;42.33;;;;;;;19.66;100.00;101632.94;5007274;28;20100;-78
2023/09/10 06:40:54;;;;;;;44.65;40.00;;;;;;;19.73;100.00;101638.50;5009895;28;20585;-78
2023/09/10 06:43:20;;;;;;;43.17;38.63;;;;;;;19.79;100.00;101637.88;5006983;28;20049;-78
2023/09/10 06:45:46;;;;;;;44.65;40.25;;;;;;;19.86;100.00;101636.28;5008716;28;20048;-82
2023/09/10 06:48:11;;;;;;;42.20;37.85;;;;;;;19.88;100.00;101633.44;5008996;28;20029;-77
2023/09/10 06:50:37;;;;;;;40.78;36.55;;;;;;;19.95;100.00;101640.69;5005317;28;20029;-77
2023/09/10 06:53:02;;;;;;;42.58;38.03;;;;;;;20.01;100.00;101640.09;5008902;28;20026;-81
2023/09/10 06:55:28;;;;;;;40.60;36.42;;;;;;;20.18;100.00;101626.81;4984868;28;20057;-77
2023/09/10 06:57:55;;;;;;;37.95;33.90;;;;;;;20.28;100.00;101638.25;5009417;28;20026;-77
2023/09/10 07:00:21;;;;;;;38.30;34.45;;;;;;;20.43;100.00;101639.41;5008741;28;20382;-78
2023/09/10 07:02:46;;;;;;;38.75;32.03;;;;;;;20.53;100.00;101639.28;5008576;28;20053;-77
2023/09/10 07:05:12;;;;;;;33.35;29.90;;;;;;;20.65;100.00;101644.19;5009314;28;20054;-77
2023/09/10 07:07:37;;;;;;;32.40;29.08;;;;;;;20.81;100.00;101642.56;4983379;28;20531;-77
2023/09/10 07:10:03;;;;;;;34.13;29.48;;;;;;;21.01;100.00;101633.28;5008975;28;20144;-80
2023/09/10 07:12:28;;;;;;;30.60;27.50;;;;;;;21.19;100.00;101642.03;5011644;28;20509;-81
2023/09/10 07:14:53;;;;;;;29.40;26.50;;;;;;;21.30;100.00;101640.09;5006734;28;20471;-80
2023/09/10 07:17:19;;;;;;;29.65;26.42;;;;;;;21.43;100.00;101637.78;5007888;28;20022;-76
2023/09/10 07:19:44;;;;;;;28.90;25.80;;;;;;;21.58;100.00;101639.63;4990161;28;20123;-77
2023/09/10 07:22:11;;;;;;;30.55;24.92;;;;;;;21.84;100.00;101636.81;5009442;28;20041;-77
2023/09/10 07:24:37;;;;;;;26.80;24.00;;;;;;;22.04;98.67;101636.50;5007444;28;20359;-80
2023/09/10 07:27:02;;;;;;;27.23;24.35;;;;;;;22.22;98.76;101634.47;5001343;28;20021;-77
2023/09/10 07:29:28;;;;;;;24.70;22.00;;;;;;;22.39;97.15;101641.47;5010554;28;20040;-77
2023/09/10 07:31:54;;;;;;;25.23;22.58;;;;;;;22.50;95.95;101638.44;5008683;28;20030;-77
2023/09/10 07:34:21;;;;;;;26.83;21.70;;;;;;;22.72;95.03;101639.50;5009612;28;20037;-83
2023/09/10 07:36:46;;;;;;;28.27;21.77;;;;;;;22.87;94.87;101637.00;5009976;28;20034;-75
2023/09/10 07:39:13;;;;;;;24.90;22.30;;;;;;;23.08;93.19;101642.59;5010149;28;20500;-77
2023/09/10 07:41:40;;;;;;;23.55;20.55;;;;;;;23.25;93.26;101642.50;5011646;28;20482;-75
2023/09/10 07:44:06;;;;;;;27.02;20.33;;;;;;;23.54;91.25;101639.94;5012550;28;20054;-75
2023/09/10 07:46:32;;;;;;;22.60;19.35;;;;;;;23.60;90.39;101641.09;5013077;28;20026;-75
2023/09/10 07:48:58;;;;;;;24.35;18.60;;;;;;;23.81;89.92;101643.13;5011986;28;20034;-75
2023/09/10 07:51:28;;;;;;;22.17;16.63;;;;;;;24.11;87.08;101638.69;5010661;28;20029;-77
2023/09/10 07:53:53;;;;;;;23.20;16.20;;;;;;;24.26;86.23;101631.47;4994578;28;20477;-75
2023/09/10 07:56:19;;;;;;;18.40;16.15;;;;;;;24.42;85.78;101635.88;5011613;28;20113;-75
2023/09/10 07:58:45;;;;;;;20.73;14.75;;;;;;;24.66;84.94;101646.34;5007032;28;20108;-75
2023/09/10 08:01:10;;;;;;;19.50;14.60;;;;;;;24.90;82.55;101639.84;5011923;28;20110;-77
2023/09/10 08:03:37;;;;;;;21.15;13.70;;;;;;;24.97;81.76;101649.66;5011689;28;20033;-74
2023/09/10 08:06:03;;;;;;;18.77;13.40;;;;;;;25.19;81.51;101649.72;4999788;28;20026;-74
2023/09/10 08:08:28;;;;;;;16.38;12.18;;;;;;;25.40;79.36;101647.06;5009668;28;20029;-74
2023/09/10 08:10:54;;;;;;;19.63;12.77;;;;;;;25.53;79.43;101649.91;5011084;28;20030;-74
2023/09/10 08:13:20;;;;;;;17.45;11.13;;;;;;;25.64;79.39;101659.34;4994246;28;20076;-74
2023/09/10 08:15:45;;;;;;;18.85;12.10;;;;;;;25.86;75.56;101652.94;5012788;28;20034;-76
2023/09/10 08:18:13;;;;;;;15.52;10.82;;;;;;;26.02;75.45;101657.25;5011779;28;20088;-76
2023/09/10 08:20:40;;;;;;;15.13;11.93;;;;;;;26.19;74.17;101655.91;5009802;28;20025;-74
2023/09/10 08:23:06;;;;;;;15.95;11.02;;;;;;;26.39;74.68;101647.13;5011273;28;20052;-74
2023/09/10 08:25:32;;;;;;;16.17;10.75;;;;;;;26.48;72.80;101646.81;5010556;28;20022;-74
2023/09/10 08:28:00;;;;;;;11.50;10.30;;;;;;;26.61;72.69;101647.91;4994072;28;20037;-75
2023/09/10 08:30:26;;;;;;;12.85;10.10;;;;;;;26.65;72.54;101650.00;5011561;28;20441;-74
2023/09/10 08:32:51;;;;;;;14.35;10.13;;;;;;;26.82;72.17;101642.41;5012861;28;20032;-74
2023/09/10 08:35:22;;;;;;;13.40;9.85;;;;;;;27.04;71.71;101641.28;5014026;28;20386;-74
2023/09/10 08:37:47;;;;;;;14.63;9.43;;;;;;;27.21;70.36;101636.34;5013087;28;20030;-75
2023/09/10 08:40:16;;;;;;;13.65;9.40;;;;;;;27.26;71.28;101644.69;5013445;28;20359;-74
2023/09/10 08:43:05;;;;;;;14.50;9.18;;;;;;;27.65;72.11;101643.13;5010600;28;20042;-75
2023/09/10 08:45:31;;;;;;;13.98;8.73;;;;;;;27.85;69.03;101643.13;5002154;28;20009;-74
2023/09/10 08:48:00;;;;;;;14.85;9.10;;;;;;;27.83;66.14;101643.34;5011789;28;20017;-76
2023/09/10 08:50:25;;;;;;;15.73;8.77;;;;;;;27.95;69.00;101643.53;4993084;28;20398;-74
2023/09/10 08:52:52;;;;;;;13.52;9.07;;;;;;;28.24;65.87;101643.13;5012093;28;20022;-76
2023/09/10 08:55:18;;;;;;;13.05;8.65;;;;;;;28.18;65.66;101643.13;5010879;28;20029;-74
2023/09/10 08:57:45;;;;;;;30.02;9.23;;;;;;;28.54;65.12;101639.97;5012893;28;20045;-77
2023/09/10 09:00:15;;;;;;;15.60;8.82;;;;;;;28.69;64.37;101641.34;5006805;28;20402;-78
2023/09/10 09:02:45;;;;;;;20.33;9.18;;;;;;;28.82;63.78;101643.22;5011296;28;20030;-77
2023/09/10 09:05:11;;;;;;;13.38;8.57;;;;;;;28.98;62.83;101641.91;5011640;28;20025;-77
2023/09/10 09:07:45;;;;;;;10.95;7.20;;;;;;;28.97;63.83;101641.06;5011807;28;20382;-76
2023/09/10 09:10:17;;;;;;;11.52;7.82;;;;;;;28.92;63.31;101637.34;4992876;28;20390;-76
2023/09/10 09:12:47;;;;;;;10.43;7.00;;;;;;;29.28;62.50;101640.28;5009776;28;20101;-77
2023/09/10 09:15:14;;;;;;;10.45;7.47;;;;;;;29.42;61.88;101632.91;5008904;28;20379;-76
2023/09/10 09:17:41;;;;;;;14.85;7.82;;;;;;;29.43;61.79;101637.28;5010269;28;20441;-76
2023/09/10 09:20:10;;;;;;;14.98;7.97;;;;;;;29.42;63.18;101629.34;5010971;28;20069;-78
2023/09/10 09:22:40;;;;;;;13.30;7.70;;;;;;;29.60;62.00;101632.16;5010327;28;20034;-77
2023/09/10 09:25:06;;;;;;;16.23;7.50;;;;;;;29.70;61.35;101631.69;5009958;28;20032;-76
2023/09/10 09:27:34;;;;;;;11.90;7.30;;;;;;;29.91;60.39;101623.97;5010579;28;20453;-77
2023/09/10 09:30:05;;;;;;;11.65;6.43;;;;;;;29.88;59.46;101629.84;5016858;28;20049;-78
2023/09/10 09:32:36;;;;;;;11.88;6.72;;;;;;;30.06;58.78;101625.56;5007560;28;20109;-76
2023/09/10 09:35:03;;;;;;;9.90;6.25;;;;;;;30.30;57.56;101621.13;5011984;28;20212;-78
2023/09/10 09:37:33;;;;;;;12.77;7.28;;;;;;;30.44;58.09;101620.78;5010891;28;20474;-78
2023/09/10 09:40:03;;;;;;;10.60;5.80;;;;;;;30.54;58.22;101618.38;4994515;28;20032;-78
2023/09/10 09:42:29;;;;;;;10.95;5.80;;;;;;;30.63;57.32;101609.94;5010696;28;20096;-78
2023/09/10 09:44:57;;;;;;;10.25;5.70;;;;;;;30.68;55.56;101608.19;5012745;28;20022;-78
2023/09/10 09:47:22;;;;;;;12.82;6.68;;;;;;;30.85;54.13;101605.69;4994278;28;20072;-77
2023/09/10 09:49:48;;;;;;;13.90;6.22;;;;;;;30.89;54.05;101609.63;5010824;28;20030;-77
2023/09/10 09:52:18;;;;;;;11.57;5.10;;;;;;;30.72;55.35;101608.56;5009554;28;20156;-77
2023/09/10 09:54:46;;;;;;;12.43;5.90;;;;;;;30.88;54.95;101607.13;5009235;28;20367;-78
2023/09/10 09:57:11;;;;;;;12.15;5.60;;;;;;;31.11;54.71;101602.59;5008941;28;20026;-77
2023/09/10 09:59:37;;;;;;;13.80;5.72;;;;;;;31.20;53.97;101605.00;5008585;28;20025;-77
2023/09/10 10:02:03;;;;;;;8.02;5.30;;;;;;;31.34;54.82;101611.94;5008708;28;20083;-77
2023/09/10 10:04:32;;;;;;;11.45;5.07;;;;;;;31.36;53.30;101609.81;5008561;28;20033;-78
2023/09/10 10:06:59;;;;;;;14.27;4.78;;;;;;;31.27;51.16;101605.78;5008928;28;20033;-77
2023/09/10 10:09:37;;;;;;;12.48;4.50;;;;;;;31.34;54.26;101604.59;5009875;28;20034;-77
2023/09/10 10:12:03;;;;;;;8.07;4.70;;;;;;;31.52;50.10;101603.69;5006039;28;20033;-77
2023/09/10 10:14:33;;;;;;;9.05;4.50;;;;;;;31.33;50.43;101593.97;5007467;28;20026;-77
2023/09/10 10:17:04;;;;;;;10.38;4.70;;;;;;;31.34;51.95;101590.19;5009183;28;20109;-78
2023/09/10 10:19:31;;;;;;;9.55;5.32;;;;;;;31.58;51.20;101591.03;5005199;28;20084;-77
2023/09/10 10:21:57;;;;;;;9.43;5.00;;;;;;;31.28;49.86;101593.84;5001560;28;20053;-79
2023/09/10 10:24:27;;;;;;;7.60;5.05;;;;;;;31.35;49.90;101598.09;5006770;28;20030;-79
2023/09/10 10:26:53;;;;;;;14.90;5.28;;;;;;;31.41;51.25;101596.34;5009184;28;20056;-76
2023/09/10 10:29:19;;;;;;;8.15;5.22;;;;;;;31.10;50.64;101590.06;5009574;28;20108;-76
2023/09/10 10:31:48;;;;;;;10.63;5.22;;;;;;;31.23;52.87;101590.97;5008005;28;20034;-77
2023/09/10 10:34:23;;;;;;;9.77;4.82;;;;;;;31.31;51.34;101585.22;5007934;28;20117;-78
2023/09/10 10:37:04;;;;;;;12.05;5.30;;;;;;;31.37;52.99;101585.09;5010147;28;20080;-77
2023/09/10 10:39:58;;;;;;;11.10;5.10;;;;;;;31.58;53.19;101580.97;5005199;28;20030;-77
2023/09/10 10:42:35;;;;;;;10.18;5.10;;;;;;;31.62;51.33;101587.63;5002736;28;20501;-76
2023/09/10 10:45:05;;;;;;;9.35;4.63;;;;;;;31.61;51.37;101585.94;5009603;28;20394;-77
2023/09/10 10:47:38;;;;;;;10.35;4.63;;;;;;;31.87;49.53;101579.25;4989516;28;20038;-77
2023/09/10 10:50:08;;;;;;;7.10;4.32;;;;;;;32.03;50.39;101583.19;5000732;28;20022;-77
2023/09/10 10:52:36;;;;;;;7.35;4.30;;;;;;;32.13;50.38;101577.13;5008289;28;20030;-77
2023/09/10 10:55:02;;;;;;;12.98;4.80;;;;;;;32.18;50.54;101578.06;4988772;28;20028;-77
2023/09/10 10:57:29;;;;;;;9.13;4.95;;;;;;;32.31;48.63;101577.00;5008220;28;20033;-77
2023/09/10 10:59:55;;;;;;;11.48;4.65;;;;;;;32.37;49.06;101571.41;5007491;28;20026;-78
2023/09/10 11:02:22;;;;;;;9.07;4.47;;;;;;;32.59;48.66;101568.88;5008129;28;20101;-76
2023/09/10 11:04:59;;;;;;;13.77;4.28;;;;;;;32.64;48.85;101570.88;5008851;28;20022;-76
2023/09/10 11:07:29;;;;;;;9.60;4.53;;;;;;;32.74;48.69;101557.44;4990482;28;20766;-77